sensor_id;sensor_type;location;lat;lon;timestamp;temperature;humidity
67603;DHT22;54417;47.454;18.918;2023-08-21T00:02:53;19.95;95.43
67603;DHT22;54417;47.454;18.918;2023-08-21T00:08:18;19.95;95.51
67603;DHT22;54417;47.454;18.918;2023-08-21T00:13:42;19.98;95.14
67603;DHT22;54417;47.454;18.918;2023-08-21T00:19:07;19.99;94.08
67603;DHT22;54417;47.454;18.918;2023-08-21T00:24:32;19.94;94.69
67603;DHT22;54417;47.454;18.918;2023-08-21T00:29:58;20.04;93.96
67603;DHT22;54417;47.454;18.918;2023-08-21T00:35:22;20.16;93.50
67603;DHT22;54417;47.454;18.918;2023-08-21T00:40:47;19.96;93.99
67603;DHT22;54417;47.454;18.918;2023-08-21T00:46:11;19.85;94.50
67603;DHT22;54417;47.454;18.918;2023-08-21T00:51:35;19.73;94.52
67603;DHT22;54417;47.454;18.918;2023-08-21T00:57:00;19.71;94.88
67603;DHT22;54417;47.454;18.918;2023-08-21T01:02:25;19.65;95.12
67603;DHT22;54417;47.454;18.918;2023-08-21T01:07:53;19.57;95.45
67603;DHT22;54417;47.454;18.918;2023-08-21T01:13:31;19.41;95.76
67603;DHT22;54417;47.454;18.918;2023-08-21T01:18:59;19.41;95.99
67603;DHT22;54417;47.454;18.918;2023-08-21T01:24:26;19.37;96.08
67603;DHT22;54417;47.454;18.918;2023-08-21T01:29:49;19.30;96.12
67603;DHT22;54417;47.454;18.918;2023-08-21T01:35:14;19.26;96.32
67603;DHT22;54417;47.454;18.918;2023-08-21T01:40:40;19.17;96.67
67603;DHT22;54417;47.454;18.918;2023-08-21T01:46:04;19.17;96.79
67603;DHT22;54417;47.454;18.918;2023-08-21T01:51:29;19.15;96.72
67603;DHT22;54417;47.454;18.918;2023-08-21T01:56:54;19.13;96.76
67603;DHT22;54417;47.454;18.918;2023-08-21T02:02:18;19.00;97.31
67603;DHT22;54417;47.454;18.918;2023-08-21T02:07:42;18.92;97.23
67603;DHT22;54417;47.454;18.918;2023-08-21T02:13:07;18.88;97.05
67603;DHT22;54417;47.454;18.918;2023-08-21T02:18:31;18.79;97.18
67603;DHT22;54417;47.454;18.918;2023-08-21T02:23:55;18.71;97.19
67603;DHT22;54417;47.454;18.918;2023-08-21T02:29:20;18.69;97.32
67603;DHT22;54417;47.454;18.918;2023-08-21T02:34:43;18.76;97.24
67603;DHT22;54417;47.454;18.918;2023-08-21T02:40:10;18.75;97.09
67603;DHT22;54417;47.454;18.918;2023-08-21T02:45:35;18.68;97.22
67603;DHT22;54417;47.454;18.918;2023-08-21T02:50:59;18.67;97.16
67603;DHT22;54417;47.454;18.918;2023-08-21T02:56:27;18.57;97.29
67603;DHT22;54417;47.454;18.918;2023-08-21T03:01:52;18.50;97.57
67603;DHT22;54417;47.454;18.918;2023-08-21T03:07:16;18.59;97.28
67603;DHT22;54417;47.454;18.918;2023-08-21T03:12:41;18.55;97.28
67603;DHT22;54417;47.454;18.918;2023-08-21T03:18:06;18.47;97.21
67603;DHT22;54417;47.454;18.918;2023-08-21T03:23:30;18.38;97.87
67603;DHT22;54417;47.454;18.918;2023-08-21T03:28:54;18.34;98.07
67603;DHT22;54417;47.454;18.918;2023-08-21T03:34:19;18.36;97.86
67603;DHT22;54417;47.454;18.918;2023-08-21T03:39:46;18.29;97.86
67603;DHT22;54417;47.454;18.918;2023-08-21T03:45:11;18.26;97.95
67603;DHT22;54417;47.454;18.918;2023-08-21T03:50:36;18.29;98.37
67603;DHT22;54417;47.454;18.918;2023-08-21T03:56:00;18.34;98.32
67603;DHT22;54417;47.454;18.918;2023-08-21T04:01:24;18.33;98.40
67603;DHT22;54417;47.454;18.918;2023-08-21T04:06:49;18.41;98.07
67603;DHT22;54417;47.454;18.918;2023-08-21T04:12:13;18.41;98.24
67603;DHT22;54417;47.454;18.918;2023-08-21T04:17:37;18.52;98.23
67603;DHT22;54417;47.454;18.918;2023-08-21T04:23:02;18.59;97.61
67603;DHT22;54417;47.454;18.918;2023-08-21T04:28:26;18.75;97.64
67603;DHT22;54417;47.454;18.918;2023-08-21T04:33:50;18.81;97.28
67603;DHT22;54417;47.454;18.918;2023-08-21T04:39:16;19.02;96.89
67603;DHT22;54417;47.454;18.918;2023-08-21T04:44:41;19.26;95.95
67603;DHT22;54417;47.454;18.918;2023-08-21T04:50:07;19.44;95.34
67603;DHT22;54417;47.454;18.918;2023-08-21T04:55:32;19.71;95.03
67603;DHT22;54417;47.454;18.918;2023-08-21T05:00:56;19.96;94.15
67603;DHT22;54417;47.454;18.918;2023-08-21T05:06:23;20.30;93.20
67603;DHT22;54417;47.454;18.918;2023-08-21T05:11:48;20.70;92.43
67603;DHT22;54417;47.454;18.918;2023-08-21T05:17:13;21.05;92.40
67603;DHT22;54417;47.454;18.918;2023-08-21T05:22:37;21.42;91.67
67603;DHT22;54417;47.454;18.918;2023-08-21T05:28:03;21.69;90.06
67603;DHT22;54417;47.454;18.918;2023-08-21T05:33:27;22.07;89.09
67603;DHT22;54417;47.454;18.918;2023-08-21T05:38:51;22.31;87.71
67603;DHT22;54417;47.454;18.918;2023-08-21T05:44:16;22.59;87.13
67603;DHT22;54417;47.454;18.918;2023-08-21T05:49:40;22.88;87.22
67603;DHT22;54417;47.454;18.918;2023-08-21T05:55:06;23.26;86.23
67603;DHT22;54417;47.454;18.918;2023-08-21T06:00:32;23.68;85.62
67603;DHT22;54417;47.454;18.918;2023-08-21T06:06:00;24.04;84.49
67603;DHT22;54417;47.454;18.918;2023-08-21T06:11:24;24.35;83.12
67603;DHT22;54417;47.454;18.918;2023-08-21T06:16:49;24.76;83.19
67603;DHT22;54417;47.454;18.918;2023-08-21T06:22:13;25.14;81.22
67603;DHT22;54417;47.454;18.918;2023-08-21T06:27:37;25.47;80.29
67603;DHT22;54417;47.454;18.918;2023-08-21T06:33:19;25.84;78.63
67603;DHT22;54417;47.454;18.918;2023-08-21T06:38:43;26.25;76.76
67603;DHT22;54417;47.454;18.918;2023-08-21T06:44:07;26.58;75.84
67603;DHT22;54417;47.454;18.918;2023-08-21T06:49:33;27.13;75.17
67603;DHT22;54417;47.454;18.918;2023-08-21T06:54:56;27.55;73.06
67603;DHT22;54417;47.454;18.918;2023-08-21T07:00:20;28.02;71.44
67603;DHT22;54417;47.454;18.918;2023-08-21T07:05:53;28.35;71.21
67603;DHT22;54417;47.454;18.918;2023-08-21T07:11:17;28.57;69.94
67603;DHT22;54417;47.454;18.918;2023-08-21T07:16:41;28.81;65.43
67603;DHT22;54417;47.454;18.918;2023-08-21T07:22:06;29.00;65.00
67603;DHT22;54417;47.454;18.918;2023-08-21T07:27:30;29.16;65.96
67603;DHT22;54417;47.454;18.918;2023-08-21T07:32:54;29.28;64.78
67603;DHT22;54417;47.454;18.918;2023-08-21T07:38:19;29.59;62.03
67603;DHT22;54417;47.454;18.918;2023-08-21T07:43:44;29.77;62.23
67603;DHT22;54417;47.454;18.918;2023-08-21T07:49:07;29.93;61.96
67603;DHT22;54417;47.454;18.918;2023-08-21T07:54:33;30.04;65.53
67603;DHT22;54417;47.454;18.918;2023-08-21T07:59:58;30.21;60.66
67603;DHT22;54417;47.454;18.918;2023-08-21T08:05:22;30.42;61.97
67603;DHT22;54417;47.454;18.918;2023-08-21T08:10:47;30.54;60.73
67603;DHT22;54417;47.454;18.918;2023-08-21T08:16:10;30.71;60.98
67603;DHT22;54417;47.454;18.918;2023-08-21T08:21:34;30.92;59.86
67603;DHT22;54417;47.454;18.918;2023-08-21T08:27:00;30.90;57.37
67603;DHT22;54417;47.454;18.918;2023-08-21T08:32:25;31.09;58.40
67603;DHT22;54417;47.454;18.918;2023-08-21T08:37:49;31.14;57.18
67603;DHT22;54417;47.454;18.918;2023-08-21T08:43:14;31.45;58.12
67603;DHT22;54417;47.454;18.918;2023-08-21T08:48:38;31.68;55.48
67603;DHT22;54417;47.454;18.918;2023-08-21T08:54:03;31.68;56.02
67603;DHT22;54417;47.454;18.918;2023-08-21T08:59:29;31.75;56.63
67603;DHT22;54417;47.454;18.918;2023-08-21T09:04:54;31.80;55.92
67603;DHT22;54417;47.454;18.918;2023-08-21T09:10:18;31.67;55.34
67603;DHT22;54417;47.454;18.918;2023-08-21T09:15:44;31.65;56.08
67603;DHT22;54417;47.454;18.918;2023-08-21T09:21:10;31.88;55.96
67603;DHT22;54417;47.454;18.918;2023-08-21T09:26:34;32.02;55.59
67603;DHT22;54417;47.454;18.918;2023-08-21T09:31:59;32.06;55.62
67603;DHT22;54417;47.454;18.918;2023-08-21T09:37:28;32.26;55.54
67603;DHT22;54417;47.454;18.918;2023-08-21T09:42:52;32.01;54.98
67603;DHT22;54417;47.454;18.918;2023-08-21T09:48:19;31.86;52.94
67603;DHT22;54417;47.454;18.918;2023-08-21T09:53:44;31.92;55.36
67603;DHT22;54417;47.454;18.918;2023-08-21T09:59:08;32.13;53.63
67603;DHT22;54417;47.454;18.918;2023-08-21T10:04:34;32.15;53.61
67603;DHT22;54417;47.454;18.918;2023-08-21T10:09:58;31.99;53.78
67603;DHT22;54417;47.454;18.918;2023-08-21T10:15:22;32.15;54.76
67603;DHT22;54417;47.454;18.918;2023-08-21T10:20:48;32.43;55.61
67603;DHT22;54417;47.454;18.918;2023-08-21T10:26:12;32.55;55.38
67603;DHT22;54417;47.454;18.918;2023-08-21T10:31:39;32.57;53.49
67603;DHT22;54417;47.454;18.918;2023-08-21T10:37:08;32.55;53.82
67603;DHT22;54417;47.454;18.918;2023-08-21T10:42:39;32.56;52.24
67603;DHT22;54417;47.454;18.918;2023-08-21T10:48:04;32.37;51.12
67603;DHT22;54417;47.454;18.918;2023-08-21T10:53:30;32.35;52.48
67603;DHT22;54417;47.454;18.918;2023-08-21T10:58:55;32.26;53.18
67603;DHT22;54417;47.454;18.918;2023-08-21T11:04:19;32.28;52.54
67603;DHT22;54417;47.454;18.918;2023-08-21T11:09:44;32.33;53.97
67603;DHT22;54417;47.454;18.918;2023-08-21T11:15:11;32.28;50.59
67603;DHT22;54417;47.454;18.918;2023-08-21T11:20:35;32.44;52.01
67603;DHT22;54417;47.454;18.918;2023-08-21T11:26:01;32.50;51.90
67603;DHT22;54417;47.454;18.918;2023-08-21T11:31:45;32.64;49.77
67603;DHT22;54417;47.454;18.918;2023-08-21T11:37:10;32.67;51.12
67603;DHT22;54417;47.454;18.918;2023-08-21T11:42:35;32.64;50.48
67603;DHT22;54417;47.454;18.918;2023-08-21T11:47:59;32.77;50.14
67603;DHT22;54417;47.454;18.918;2023-08-21T11:53:33;32.94;50.07
67603;DHT22;54417;47.454;18.918;2023-08-21T11:58:59;33.08;54.33
67603;DHT22;54417;47.454;18.918;2023-08-21T12:04:24;33.14;48.33
67603;DHT22;54417;47.454;18.918;2023-08-21T12:09:48;33.15;47.77
67603;DHT22;54417;47.454;18.918;2023-08-21T12:15:14;33.12;50.43
67603;DHT22;54417;47.454;18.918;2023-08-21T12:20:37;33.31;50.70
67603;DHT22;54417;47.454;18.918;2023-08-21T12:26:01;33.25;47.83
67603;DHT22;54417;47.454;18.918;2023-08-21T12:31:26;33.42;50.89
67603;DHT22;54417;47.454;18.918;2023-08-21T12:36:51;33.42;52.79
67603;DHT22;54417;47.454;18.918;2023-08-21T12:42:15;33.53;48.29
67603;DHT22;54417;47.454;18.918;2023-08-21T12:47:40;33.61;49.08
67603;DHT22;54417;47.454;18.918;2023-08-21T12:53:04;33.63;49.05
67603;DHT22;54417;47.454;18.918;2023-08-21T12:58:28;33.63;48.04
67603;DHT22;54417;47.454;18.918;2023-08-21T13:03:54;33.61;49.29
67603;DHT22;54417;47.454;18.918;2023-08-21T13:09:17;33.36;48.75
67603;DHT22;54417;47.454;18.918;2023-08-21T13:14:41;33.41;50.54
67603;DHT22;54417;47.454;18.918;2023-08-21T13:20:08;33.26;49.00
67603;DHT22;54417;47.454;18.918;2023-08-21T13:25:34;33.32;48.12
67603;DHT22;54417;47.454;18.918;2023-08-21T13:30:57;33.41;51.78
67603;DHT22;54417;47.454;18.918;2023-08-21T13:36:23;33.62;51.30
67603;DHT22;54417;47.454;18.918;2023-08-21T13:41:48;33.52;49.54
67603;DHT22;54417;47.454;18.918;2023-08-21T13:47:12;33.65;50.37
67603;DHT22;54417;47.454;18.918;2023-08-21T13:52:38;33.56;49.68
67603;DHT22;54417;47.454;18.918;2023-08-21T13:58:02;33.74;51.16
67603;DHT22;54417;47.454;18.918;2023-08-21T14:03:26;33.74;49.30
67603;DHT22;54417;47.454;18.918;2023-08-21T14:08:51;33.83;51.06
67603;DHT22;54417;47.454;18.918;2023-08-21T14:14:15;33.79;51.30
67603;DHT22;54417;47.454;18.918;2023-08-21T14:19:39;33.80;52.38
67603;DHT22;54417;47.454;18.918;2023-08-21T14:25:05;33.82;51.00
67603;DHT22;54417;47.454;18.918;2023-08-21T14:30:29;33.74;51.63
67603;DHT22;54417;47.454;18.918;2023-08-21T14:35:53;33.74;49.48
67603;DHT22;54417;47.454;18.918;2023-08-21T14:41:18;33.80;52.84
67603;DHT22;54417;47.454;18.918;2023-08-21T14:46:42;33.63;53.53
67603;DHT22;54417;47.454;18.918;2023-08-21T14:52:06;33.72;52.14
67603;DHT22;54417;47.454;18.918;2023-08-21T14:57:32;33.68;50.44
67603;DHT22;54417;47.454;18.918;2023-08-21T15:02:55;33.41;50.55
67603;DHT22;54417;47.454;18.918;2023-08-21T15:08:19;33.17;50.07
67603;DHT22;54417;47.454;18.918;2023-08-21T15:13:44;33.14;51.55
67603;DHT22;54417;47.454;18.918;2023-08-21T15:19:08;33.19;53.72
67603;DHT22;54417;47.454;18.918;2023-08-21T15:24:32;36.00;48.03
67603;DHT22;54417;47.454;18.918;2023-08-21T15:29:57;38.17;43.07
67603;DHT22;54417;47.454;18.918;2023-08-21T15:35:21;39.77;43.00
67603;DHT22;54417;47.454;18.918;2023-08-21T15:40:45;40.63;36.44
67603;DHT22;54417;47.454;18.918;2023-08-21T15:46:10;40.79;36.51
67603;DHT22;54417;47.454;18.918;2023-08-21T15:51:35;38.37;38.72
67603;DHT22;54417;47.454;18.918;2023-08-21T15:56:59;36.05;49.24
67603;DHT22;54417;47.454;18.918;2023-08-21T16:02:24;35.42;49.09
67603;DHT22;54417;47.454;18.918;2023-08-21T16:07:48;33.85;52.58
67603;DHT22;54417;47.454;18.918;2023-08-21T16:13:12;33.04;57.00
67603;DHT22;54417;47.454;18.918;2023-08-21T16:18:37;33.77;53.62
67603;DHT22;54417;47.454;18.918;2023-08-21T16:24:01;33.10;55.81
67603;DHT22;54417;47.454;18.918;2023-08-21T16:29:25;31.98;59.03
67603;DHT22;54417;47.454;18.918;2023-08-21T16:34:50;31.13;63.38
67603;DHT22;54417;47.454;18.918;2023-08-21T16:40:14;30.48;66.52
67603;DHT22;54417;47.454;18.918;2023-08-21T16:45:38;29.97;69.36
67603;DHT22;54417;47.454;18.918;2023-08-21T16:51:04;29.43;69.18
67603;DHT22;54417;47.454;18.918;2023-08-21T16:56:27;29.02;71.62
67603;DHT22;54417;47.454;18.918;2023-08-21T17:01:51;28.64;72.06
67603;DHT22;54417;47.454;18.918;2023-08-21T17:07:17;28.27;74.88
67603;DHT22;54417;47.454;18.918;2023-08-21T17:12:41;28.01;76.26
67603;DHT22;54417;47.454;18.918;2023-08-21T17:18:05;27.72;76.62
67603;DHT22;54417;47.454;18.918;2023-08-21T17:23:30;27.53;78.14
67603;DHT22;54417;47.454;18.918;2023-08-21T17:28:54;27.27;79.19
67603;DHT22;54417;47.454;18.918;2023-08-21T17:34:18;27.14;78.23
67603;DHT22;54417;47.454;18.918;2023-08-21T17:39:44;26.98;77.75
67603;DHT22;54417;47.454;18.918;2023-08-21T17:45:08;26.72;81.01
67603;DHT22;54417;47.454;18.918;2023-08-21T17:50:33;26.53;82.34
67603;DHT22;54417;47.454;18.918;2023-08-21T17:56:00;26.38;83.12
67603;DHT22;54417;47.454;18.918;2023-08-21T18:01:27;26.17;83.43
67603;DHT22;54417;47.454;18.918;2023-08-21T18:06:51;25.97;84.54
67603;DHT22;54417;47.454;18.918;2023-08-21T18:12:17;25.80;84.97
67603;DHT22;54417;47.454;18.918;2023-08-21T18:17:40;25.52;85.57
67603;DHT22;54417;47.454;18.918;2023-08-21T18:23:05;25.35;86.47
67603;DHT22;54417;47.454;18.918;2023-08-21T18:28:30;25.17;87.10
67603;DHT22;54417;47.454;18.918;2023-08-21T18:33:54;25.05;87.43
67603;DHT22;54417;47.454;18.918;2023-08-21T18:39:18;24.83;87.94
67603;DHT22;54417;47.454;18.918;2023-08-21T18:44:43;24.73;88.65
67603;DHT22;54417;47.454;18.918;2023-08-21T18:50:08;24.50;89.59
67603;DHT22;54417;47.454;18.918;2023-08-21T18:55:35;24.33;89.71
67603;DHT22;54417;47.454;18.918;2023-08-21T19:01:00;24.19;90.31
67603;DHT22;54417;47.454;18.918;2023-08-21T19:06:25;24.06;90.35
67603;DHT22;54417;47.454;18.918;2023-08-21T19:11:48;23.98;90.74
67603;DHT22;54417;47.454;18.918;2023-08-21T19:17:15;23.85;91.64
67603;DHT22;54417;47.454;18.918;2023-08-21T19:22:39;23.79;91.48
67603;DHT22;54417;47.454;18.918;2023-08-21T19:28:04;23.64;91.45
67603;DHT22;54417;47.454;18.918;2023-08-21T19:33:29;23.62;91.55
67603;DHT22;54417;47.454;18.918;2023-08-21T19:38:54;23.43;91.34
67603;DHT22;54417;47.454;18.918;2023-08-21T19:44:18;23.27;92.13
67603;DHT22;54417;47.454;18.918;2023-08-21T19:49:43;23.22;91.79
67603;DHT22;54417;47.454;18.918;2023-08-21T19:55:07;23.16;91.69
67603;DHT22;54417;47.454;18.918;2023-08-21T20:00:31;23.07;91.82
67603;DHT22;54417;47.454;18.918;2023-08-21T20:06:06;22.96;91.79
67603;DHT22;54417;47.454;18.918;2023-08-21T20:11:30;22.81;92.59
67603;DHT22;54417;47.454;18.918;2023-08-21T20:16:54;22.68;91.70
67603;DHT22;54417;47.454;18.918;2023-08-21T20:22:19;22.69;92.38
67603;DHT22;54417;47.454;18.918;2023-08-21T20:27:43;22.66;92.40
67603;DHT22;54417;47.454;18.918;2023-08-21T20:33:07;22.56;92.86
67603;DHT22;54417;47.454;18.918;2023-08-21T20:38:32;22.48;92.44
67603;DHT22;54417;47.454;18.918;2023-08-21T20:43:56;22.35;92.67
67603;DHT22;54417;47.454;18.918;2023-08-21T20:49:20;22.24;92.71
67603;DHT22;54417;47.454;18.918;2023-08-21T20:54:45;22.27;92.62
67603;DHT22;54417;47.454;18.918;2023-08-21T21:00:09;22.07;93.06
67603;DHT22;54417;47.454;18.918;2023-08-21T21:05:34;21.94;93.64
67603;DHT22;54417;47.454;18.918;2023-08-21T21:11:00;21.86;93.54
67603;DHT22;54417;47.454;18.918;2023-08-21T21:16:24;21.85;93.73
67603;DHT22;54417;47.454;18.918;2023-08-21T21:21:49;21.72;93.76
67603;DHT22;54417;47.454;18.918;2023-08-21T21:27:17;21.76;93.73
67603;DHT22;54417;47.454;18.918;2023-08-21T21:32:41;21.72;93.61
67603;DHT22;54417;47.454;18.918;2023-08-21T21:38:05;21.58;94.45
67603;DHT22;54417;47.454;18.918;2023-08-21T21:43:30;21.50;94.19
67603;DHT22;54417;47.454;18.918;2023-08-21T21:48:56;21.48;94.28
67603;DHT22;54417;47.454;18.918;2023-08-21T21:54:20;21.48;94.02
67603;DHT22;54417;47.454;18.918;2023-08-21T21:59:45;21.38;94.24
67603;DHT22;54417;47.454;18.918;2023-08-21T22:05:10;21.22;94.51
67603;DHT22;54417;47.454;18.918;2023-08-21T22:10:33;21.17;94.53
67603;DHT22;54417;47.454;18.918;2023-08-21T22:15:59;21.17;94.81
67603;DHT22;54417;47.454;18.918;2023-08-21T22:21:23;21.07;94.88
67603;DHT22;54417;47.454;18.918;2023-08-21T22:26:46;21.02;94.74
67603;DHT22;54417;47.454;18.918;2023-08-21T22:32:11;21.01;94.80
67603;DHT22;54417;47.454;18.918;2023-08-21T22:37:35;20.94;94.73
67603;DHT22;54417;47.454;18.918;2023-08-21T22:43:00;20.80;95.11
67603;DHT22;54417;47.454;18.918;2023-08-21T22:48:25;20.80;95.04
67603;DHT22;54417;47.454;18.918;2023-08-21T22:53:49;20.74;95.06
67603;DHT22;54417;47.454;18.918;2023-08-21T22:59:13;20.64;95.17
67603;DHT22;54417;47.454;18.918;2023-08-21T23:04:38;20.59;95.41
67603;DHT22;54417;47.454;18.918;2023-08-21T23:10:02;20.66;95.23
67603;DHT22;54417;47.454;18.918;2023-08-21T23:15:26;20.53;94.93
67603;DHT22;54417;47.454;18.918;2023-08-21T23:20:59;20.40;95.32
67603;DHT22;54417;47.454;18.918;2023-08-21T23:26:23;20.29;95.84
67603;DHT22;54417;47.454;18.918;2023-08-21T23:31:47;20.33;95.59
67603;DHT22;54417;47.454;18.918;2023-08-21T23:37:12;20.32;95.51
67603;DHT22;54417;47.454;18.918;2023-08-21T23:42:36;20.22;95.68
67603;DHT22;54417;47.454;18.918;2023-08-21T23:48:00;20.14;95.82
67603;DHT22;54417;47.454;18.918;2023-08-21T23:53:25;20.09;96.02
67603;DHT22;54417;47.454;18.918;2023-08-21T23:58:49;19.99;96.10
